Time;durP1;ratioP1;P1;durP2;ratioP2;P2;SDS_P1;SDS_P2;PMS_P1;PMS_P2;Temp;Humidity;BMP_temperature;BMP_pressure;BME280_temperature;BME280_humidity;BME280_pressure;Samples;Min_cycle;Max_cycle;Signal;HPM_P1;HPM_P2
2022/12/24 00:01:38;;;;;;;15.57;6.03;;;4.80;99.90;;;;;;5025202;28;20294;-47
2022/12/24 00:04:05;;;;;;;10.93;5.87;;;4.90;99.90;;;;;;5025019;28;20278;-50
2022/12/24 00:06:32;;;;;;;11.00;5.97;;;4.80;99.90;;;;;;5026346;28;20204;-51
2022/12/24 00:08:59;;;;;;;13.33;6.07;;;4.80;99.90;;;;;;5023856;28;20192;-49
2022/12/24 00:11:26;;;;;;;16.47;6.20;;;4.80;99.90;;;;;;5006738;28;20732;-49
2022/12/24 00:13:54;;;;;;;13.43;5.97;;;4.80;99.90;;;;;;5030771;28;20223;-47
2022/12/24 00:16:20;;;;;;;15.13;6.80;;;4.80;99.90;;;;;;5031103;28;20199;-52
2022/12/24 00:18:47;;;;;;;16.87;6.43;;;4.80;99.90;;;;;;5029681;28;20216;-52
2022/12/24 00:21:15;;;;;;;14.27;6.50;;;4.80;99.90;;;;;;5025316;28;20291;-51
2022/12/24 00:23:43;;;;;;;13.20;6.67;;;4.80;99.90;;;;;;5023343;28;20220;-49
2022/12/24 00:26:09;;;;;;;15.57;6.20;;;4.80;99.90;;;;;;5036406;28;20195;-49
2022/12/24 00:28:36;;;;;;;16.70;6.20;;;4.80;99.90;;;;;;5013301;28;20204;-46
2022/12/24 00:31:13;;;;;;;20.10;7.50;;;4.80;99.90;;;;;;5030465;28;20203;-48
2022/12/24 00:33:40;;;;;;;12.50;6.90;;;4.70;99.90;;;;;;5035300;28;20219;-47
2022/12/24 00:36:08;;;;;;;14.90;7.20;;;4.70;99.90;;;;;;5026472;28;20203;-48
2022/12/24 00:38:35;;;;;;;17.50;6.47;;;4.70;99.90;;;;;;5022061;28;20195;-54
2022/12/24 00:41:03;;;;;;;13.90;7.20;;;4.70;99.90;;;;;;5039366;28;20203;-49
2022/12/24 00:43:31;;;;;;;15.10;6.97;;;4.70;99.90;;;;;;5011058;28;20224;-50
2022/12/24 00:46:00;;;;;;;17.87;7.47;;;4.70;99.90;;;;;;5031362;28;20218;-50
2022/12/24 00:48:27;;;;;;;16.13;7.20;;;4.70;99.90;;;;;;5032702;28;20203;-48
2022/12/24 00:50:54;;;;;;;18.30;7.70;;;4.70;99.90;;;;;;5030847;28;20204;-45
2022/12/24 00:53:21;;;;;;;17.73;7.27;;;4.70;99.90;;;;;;5026965;28;20226;-50
2022/12/24 00:55:48;;;;;;;23.40;8.10;;;4.70;99.90;;;;;;5024562;28;20194;-49
2022/12/24 00:58:15;;;;;;;21.30;8.83;;;4.70;99.90;;;;;;5014818;28;20214;-52
2022/12/24 01:00:42;;;;;;;19.00;7.63;;;4.70;99.90;;;;;;5022941;28;20192;-52
2022/12/24 01:03:09;;;;;;;27.13;7.73;;;4.70;99.90;;;;;;5025697;28;20212;-47
2022/12/24 01:05:36;;;;;;;16.53;7.77;;;4.70;99.90;;;;;;5021970;28;20227;-48
2022/12/24 01:08:04;;;;;;;19.07;7.40;;;4.70;99.90;;;;;;5025712;28;20200;-51
2022/12/24 01:10:30;;;;;;;21.07;8.00;;;4.80;99.90;;;;;;5022178;28;20200;-50
2022/12/24 01:13:00;;;;;;;20.63;7.60;;;4.80;99.90;;;;;;5025224;28;20192;-50
2022/12/24 01:15:27;;;;;;;21.53;8.83;;;4.80;99.90;;;;;;5010048;28;20201;-51
2022/12/24 01:17:54;;;;;;;18.27;8.10;;;4.80;99.90;;;;;;5025705;28;20200;-48
2022/12/24 01:20:21;;;;;;;18.17;8.20;;;4.80;99.90;;;;;;5037098;28;20199;-51
2022/12/24 01:22:49;;;;;;;19.43;8.40;;;4.80;99.90;;;;;;5031469;28;20199;-48
2022/12/24 01:25:16;;;;;;;24.93;9.67;;;4.80;99.90;;;;;;5043603;28;20221;-48
2022/12/24 01:27:44;;;;;;;23.27;8.37;;;4.80;99.90;;;;;;5041848;28;20214;-47
2022/12/24 01:30:13;;;;;;;22.97;8.60;;;4.80;99.90;;;;;;5024669;28;20215;-46
2022/12/24 01:32:40;;;;;;;27.13;9.27;;;4.80;99.90;;;;;;5029363;28;20192;-49
2022/12/24 01:35:08;;;;;;;17.93;7.97;;;4.80;99.90;;;;;;5029052;28;20188;-47
2022/12/24 01:37:36;;;;;;;26.40;9.07;;;4.80;99.90;;;;;;5021282;28;20200;-49
2022/12/24 01:45:46;;;;;;;19.70;7.50;;;4.80;99.90;;;;;;5006755;28;20220;-51
2022/12/24 01:48:30;;;;;;;20.67;8.50;;;4.80;99.90;;;;;;5024579;28;20204;-46
2022/12/24 01:51:00;;;;;;;19.50;8.60;;;4.80;99.90;;;;;;5034763;28;20203;-46
2022/12/24 01:53:28;;;;;;;26.40;9.40;;;4.80;99.90;;;;;;5026852;28;20231;-51
2022/12/24 01:55:57;;;;;;;20.17;8.87;;;4.80;99.90;;;;;;5024774;28;20200;-48
2022/12/24 01:58:25;;;;;;;24.20;9.13;;;4.70;99.90;;;;;;5022421;28;20258;-51
2022/12/24 02:00:52;;;;;;;19.00;8.67;;;4.80;99.90;;;;;;5008645;28;20212;-48
2022/12/24 02:03:19;;;;;;;20.67;8.63;;;4.70;99.90;;;;;;5021507;28;20215;-51
2022/12/24 02:05:48;;;;;;;20.70;9.20;;;4.80;99.90;;;;;;5022672;28;20767;-47
2022/12/24 02:08:17;;;;;;;20.23;9.30;;;4.80;99.90;;;;;;5023815;28;20200;-51
2022/12/24 02:10:44;;;;;;;22.03;9.13;;;4.70;99.90;;;;;;5022308;28;20188;-52
2022/12/24 02:13:14;;;;;;;22.00;9.17;;;4.80;99.90;;;;;;5024270;28;20270;-49
2022/12/24 02:15:54;;;;;;;21.43;10.13;;;4.80;99.90;;;;;;5024683;28;20297;-48
2022/12/24 02:18:27;;;;;;;21.37;9.40;;;4.80;99.90;;;;;;5011869;28;20713;-51
2022/12/24 02:21:37;;;;;;;21.67;9.57;;;4.70;99.90;;;;;;5029354;28;20211;-51
2022/12/24 02:24:26;;;;;;;20.43;8.83;;;4.70;99.90;;;;;;5032819;28;20230;-49
2022/12/24 02:27:07;;;;;;;23.27;9.47;;;4.80;99.90;;;;;;5027442;28;20200;-48
2022/12/24 02:30:05;;;;;;;21.53;8.73;;;4.70;99.90;;;;;;5020205;28;20503;-49
2022/12/24 02:33:00;;;;;;;24.77;10.93;;;4.70;99.90;;;;;;5012087;28;20206;-46
2022/12/24 02:35:35;;;;;;;21.07;9.20;;;4.70;99.90;;;;;;5020224;28;20215;-49
2022/12/24 02:38:07;;;;;;;20.70;9.53;;;4.70;99.90;;;;;;5029855;28;20212;-49
2022/12/24 02:40:40;;;;;;;20.60;9.53;;;4.70;99.90;;;;;;5026286;28;20198;-52
2022/12/24 02:43:11;;;;;;;20.07;8.70;;;4.70;99.90;;;;;;5023731;28;20234;-47
2022/12/24 02:45:42;;;;;;;22.87;9.77;;;4.80;99.90;;;;;;5021436;28;20217;-49
2022/12/24 02:48:10;;;;;;;22.53;9.70;;;4.70;99.90;;;;;;5016517;28;20206;-46
2022/12/24 02:50:37;;;;;;;21.10;8.93;;;4.70;99.90;;;;;;5019724;28;20196;-47
2022/12/24 02:53:09;;;;;;;19.30;9.27;;;4.80;99.90;;;;;;5023135;28;20290;-49
2022/12/24 02:55:47;;;;;;;20.57;8.97;;;4.70;99.90;;;;;;5019406;28;20329;-47
2022/12/24 02:58:29;;;;;;;18.40;9.30;;;4.70;99.90;;;;;;5023519;28;20208;-52
2022/12/24 03:01:15;;;;;;;16.87;8.80;;;4.80;99.90;;;;;;5042944;28;20214;-52
2022/12/24 03:03:51;;;;;;;19.73;8.00;;;4.80;99.90;;;;;;5004577;28;20313;-49
2022/12/24 03:06:27;;;;;;;20.93;9.47;;;4.80;99.90;;;;;;5024238;28;20211;-51
2022/12/24 03:09:00;;;;;;;20.67;8.97;;;4.80;99.90;;;;;;5031018;28;20199;-48
2022/12/24 03:11:27;;;;;;;17.07;8.27;;;4.80;99.90;;;;;;5020623;28;20733;-50
2022/12/24 03:13:57;;;;;;;18.40;8.90;;;4.80;99.90;;;;;;5022744;28;20220;-48
2022/12/24 03:16:27;;;;;;;23.07;9.33;;;4.80;99.90;;;;;;5028553;28;20708;-46
2022/12/24 03:18:55;;;;;;;19.23;8.73;;;4.80;99.90;;;;;;5028139;28;20196;-49
2022/12/24 03:21:27;;;;;;;19.27;8.27;;;4.80;99.90;;;;;;5009320;28;20300;-50
2022/12/24 03:23:56;;;;;;;16.80;8.27;;;4.80;99.90;;;;;;5028296;28;20237;-49
2022/12/24 03:26:25;;;;;;;13.97;7.43;;;4.80;99.90;;;;;;5021246;28;20291;-49
2022/12/24 03:28:52;;;;;;;18.10;7.77;;;4.70;99.90;;;;;;5022619;28;20207;-50
2022/12/24 03:31:20;;;;;;;17.60;7.77;;;4.70;99.90;;;;;;5022274;28;20610;-51
2022/12/24 03:33:49;;;;;;;12.87;7.20;;;4.70;99.90;;;;;;5020686;28;20274;-49
2022/12/24 03:36:16;;;;;;;19.87;7.90;;;4.70;99.90;;;;;;5012021;28;20206;-51
2022/12/24 03:38:43;;;;;;;12.97;7.77;;;4.70;99.90;;;;;;5018878;28;20204;-46
2022/12/24 03:41:10;;;;;;;17.50;7.70;;;4.70;99.90;;;;;;5027304;28;20196;-47
2022/12/24 03:43:37;;;;;;;15.67;8.30;;;4.70;99.90;;;;;;5019147;28;20962;-49
2022/12/24 03:46:06;;;;;;;13.93;8.00;;;4.70;99.90;;;;;;5036547;28;20225;-49
2022/12/24 03:48:33;;;;;;;14.70;7.37;;;4.70;99.90;;;;;;5028491;28;20215;-46
2022/12/24 03:51:02;;;;;;;16.70;7.90;;;4.70;99.90;;;;;;5008482;28;20277;-48
2022/12/24 03:53:29;;;;;;;14.23;7.57;;;4.70;99.90;;;;;;5019157;28;20231;-48
2022/12/24 03:55:56;;;;;;;15.63;7.17;;;4.70;99.90;;;;;;5037545;28;20234;-52
2022/12/24 03:58:23;;;;;;;20.30;7.70;;;4.70;99.90;;;;;;5026579;28;20658;-52
2022/12/24 04:00:50;;;;;;;15.83;7.03;;;4.70;99.90;;;;;;5021955;28;20200;-50
2022/12/24 04:03:17;;;;;;;14.67;7.50;;;4.70;99.90;;;;;;5025879;28;20231;-50
2022/12/24 04:05:44;;;;;;;16.73;8.07;;;4.80;99.90;;;;;;5020436;28;20211;-49
2022/12/24 04:08:12;;;;;;;13.57;7.03;;;4.70;99.90;;;;;;5018585;28;20203;-47
2022/12/24 04:10:39;;;;;;;18.27;7.17;;;4.80;99.90;;;;;;5028131;28;20191;-46
2022/12/24 04:13:06;;;;;;;9.53;6.47;;;4.80;99.90;;;;;;5027354;28;20220;-50
2022/12/24 04:15:32;;;;;;;15.13;6.47;;;4.80;99.90;;;;;;5024405;28;20254;-48
2022/12/24 04:17:59;;;;;;;13.47;7.57;;;4.80;99.90;;;;;;5033976;28;20196;-47
2022/12/24 04:20:26;;;;;;;13.63;6.53;;;4.80;99.90;;;;;;5023816;28;20571;-50
2022/12/24 04:22:53;;;;;;;14.07;7.57;;;4.80;99.90;;;;;;5013307;28;20211;-48
2022/12/24 04:25:21;;;;;;;16.37;6.77;;;4.80;99.90;;;;;;5024644;28;20243;-50
2022/12/24 04:27:48;;;;;;;12.53;6.67;;;4.80;99.90;;;;;;5024942;28;20978;-48
2022/12/24 04:30:15;;;;;;;14.27;7.07;;;4.80;99.90;;;;;;5026261;28;20200;-51
2022/12/24 04:32:42;;;;;;;11.63;5.90;;;4.80;99.90;;;;;;5023220;28;20211;-47
2022/12/24 04:35:09;;;;;;;15.17;6.80;;;4.80;99.90;;;;;;5026456;28;20200;-46
2022/12/24 04:37:36;;;;;;;13.20;6.27;;;4.80;99.90;;;;;;5010656;28;20237;-51
2022/12/24 04:40:03;;;;;;;12.23;6.77;;;4.80;99.90;;;;;;5035984;28;20217;-50
2022/12/24 04:42:31;;;;;;;11.43;6.77;;;4.80;99.90;;;;;;5025716;28;20200;-48
2022/12/24 04:44:58;;;;;;;10.97;6.10;;;4.80;99.90;;;;;;5025923;28;20228;-49
2022/12/24 04:47:25;;;;;;;13.73;6.73;;;4.80;99.90;;;;;;5038217;28;20260;-48
2022/12/24 04:49:52;;;;;;;10.57;6.30;;;4.70;99.90;;;;;;5029455;28;20280;-48
2022/12/24 04:52:19;;;;;;;11.30;6.00;;;4.80;99.90;;;;;;5013864;28;20215;-50
2022/12/24 04:54:47;;;;;;;12.00;5.73;;;4.70;99.90;;;;;;5030412;28;20239;-49
2022/12/24 04:57:14;;;;;;;13.77;6.60;;;4.80;99.90;;;;;;5021909;28;20796;-48
2022/12/24 04:59:42;;;;;;;13.63;6.33;;;4.80;99.90;;;;;;5025961;28;20199;-48
2022/12/24 05:02:09;;;;;;;9.03;6.17;;;4.80;99.90;;;;;;5027872;28;20211;-50
2022/12/24 05:04:36;;;;;;;12.00;6.37;;;4.80;99.90;;;;;;5026592;28;20594;-48
2022/12/24 05:07:03;;;;;;;10.73;6.37;;;4.80;99.90;;;;;;5022148;28;20228;-51
2022/12/24 05:09:30;;;;;;;10.77;5.40;;;4.80;99.90;;;;;;5014169;28;20878;-52
2022/12/24 05:11:57;;;;;;;10.37;5.60;;;4.70;99.90;;;;;;5024895;28;20204;-49
2022/12/24 05:14:23;;;;;;;13.07;5.93;;;4.70;99.90;;;;;;5022683;28;20242;-52
2022/12/24 05:16:52;;;;;;;9.33;5.93;;;4.80;99.90;;;;;;5027578;28;20200;-46
2022/12/24 05:19:18;;;;;;;15.27;5.40;;;4.70;99.90;;;;;;5026017;28;20251;-46
2022/12/24 05:26:20;;;;;;;11.03;5.17;;;4.70;99.90;;;;;;5035420;28;20298;-48
2022/12/24 05:27:17;;;;;;;10.07;5.80;;;4.80;99.90;;;;;;5021023;28;20997;-52
2022/12/24 05:29:44;;;;;;;8.27;5.47;;;4.70;99.90;;;;;;5025622;28;20202;-49
2022/12/24 05:32:13;;;;;;;8.97;5.93;;;4.70;99.90;;;;;;5021478;28;20228;-50
2022/12/24 05:34:39;;;;;;;10.97;6.47;;;4.70;99.90;;;;;;5025191;28;20776;-46
2022/12/24 05:37:06;;;;;;;10.23;6.30;;;4.80;99.90;;;;;;5021406;28;20204;-50
2022/12/24 05:39:33;;;;;;;11.93;5.83;;;4.70;99.90;;;;;;5024306;28;20211;-46
2022/12/24 05:42:00;;;;;;;12.27;6.50;;;4.70;99.90;;;;;;5014056;28;20303;-49
2022/12/24 05:44:27;;;;;;;10.57;5.73;;;4.80;99.90;;;;;;5023030;28;20218;-51
2022/12/24 05:46:54;;;;;;;14.83;5.93;;;4.80;99.90;;;;;;5030179;28;20223;-49
2022/12/24 05:49:23;;;;;;;10.57;5.73;;;4.70;99.90;;;;;;5024849;28;20199;-48
2022/12/24 05:51:50;;;;;;;9.13;5.80;;;4.80;99.90;;;;;;5034121;28;20207;-47
2022/12/24 05:54:17;;;;;;;12.10;6.17;;;4.80;99.90;;;;;;5021940;28;20219;-51
2022/12/24 05:56:44;;;;;;;12.17;5.83;;;4.80;99.90;;;;;;5010419;28;20223;-48
2022/12/24 05:59:11;;;;;;;8.90;4.77;;;4.80;99.90;;;;;;5021041;28;20200;-49
2022/12/24 06:01:37;;;;;;;9.63;6.17;;;4.80;99.90;;;;;;5024639;28;20207;-47
2022/12/24 06:04:04;;;;;;;12.33;6.07;;;4.80;99.90;;;;;;5022491;28;20219;-48
2022/12/24 06:06:33;;;;;;;9.27;5.87;;;4.80;99.90;;;;;;5023455;28;20957;-50
2022/12/24 06:08:59;;;;;;;9.40;5.90;;;4.80;99.90;;;;;;5023504;28;20712;-51
2022/12/24 06:11:28;;;;;;;15.03;6.70;;;4.80;99.90;;;;;;5009145;28;20338;-46
2022/12/24 06:13:54;;;;;;;14.37;6.47;;;4.80;99.90;;;;;;5026066;28;20215;-53
2022/12/24 06:16:23;;;;;;;9.17;5.87;;;4.80;99.90;;;;;;5029237;28;20498;-50
2022/12/24 06:18:50;;;;;;;10.43;6.07;;;4.80;99.90;;;;;;5028271;28;20212;-50
2022/12/24 06:21:18;;;;;;;10.37;6.33;;;4.80;99.90;;;;;;5028211;28;20203;-50
2022/12/24 06:23:47;;;;;;;11.50;6.53;;;4.80;99.90;;;;;;5034544;28;20629;-48
2022/12/24 06:26:15;;;;;;;11.13;6.23;;;4.80;99.90;;;;;;5007960;28;20215;-51
2022/12/24 06:28:43;;;;;;;12.73;6.27;;;4.80;99.90;;;;;;5024042;28;20204;-48
2022/12/24 06:31:13;;;;;;;7.33;5.23;;;4.80;99.90;;;;;;5032436;28;20207;-51
2022/12/24 06:33:39;;;;;;;10.77;6.43;;;4.80;99.90;;;;;;5028121;28;20628;-52
2022/12/24 06:36:07;;;;;;;7.57;5.77;;;4.80;99.90;;;;;;5014022;28;20215;-46
2022/12/24 06:38:34;;;;;;;12.47;5.60;;;4.80;99.90;;;;;;5040980;28;20215;-50
2022/12/24 06:41:05;;;;;;;10.23;6.63;;;4.80;99.90;;;;;;5023632;28;20601;-51
2022/12/24 06:43:33;;;;;;;8.90;5.23;;;4.90;99.90;;;;;;5016481;28;20228;-47
2022/12/24 06:46:01;;;;;;;12.03;5.17;;;4.80;99.90;;;;;;5030293;28;20227;-50
2022/12/24 06:48:28;;;;;;;8.40;5.07;;;4.90;99.90;;;;;;5036016;28;20207;-46
2022/12/24 06:50:55;;;;;;;11.57;5.93;;;4.90;99.90;;;;;;5028759;28;20211;-52
2022/12/24 06:53:22;;;;;;;9.60;5.23;;;4.90;99.90;;;;;;5031526;28;20219;-50
2022/12/24 06:55:49;;;;;;;11.47;6.17;;;4.80;99.90;;;;;;5034639;28;20228;-52
2022/12/24 06:58:17;;;;;;;9.23;5.87;;;4.90;99.90;;;;;;5013970;28;20196;-50
2022/12/24 07:00:44;;;;;;;10.47;5.70;;;4.80;99.90;;;;;;5031842;28;20260;-51
2022/12/24 07:03:11;;;;;;;9.57;5.30;;;4.80;99.90;;;;;;5033101;28;20312;-49
2022/12/24 07:05:38;;;;;;;10.53;5.67;;;4.90;99.90;;;;;;5031370;28;20281;-48
2022/12/24 07:08:05;;;;;;;8.53;4.90;;;4.90;99.90;;;;;;5028120;28;20194;-46
2022/12/24 07:10:32;;;;;;;9.40;5.70;;;4.80;99.90;;;;;;5034534;28;20591;-48
2022/12/24 07:12:59;;;;;;;7.97;4.83;;;4.90;99.90;;;;;;5014867;28;20568;-48
2022/12/24 07:15:27;;;;;;;8.50;5.20;;;4.80;99.90;;;;;;5036082;28;20283;-48
2022/12/24 07:17:54;;;;;;;10.30;5.47;;;4.80;99.90;;;;;;5030550;28;20199;-52
2022/12/24 07:20:20;;;;;;;8.63;5.50;;;4.80;99.90;;;;;;5037137;28;20242;-49
2022/12/24 07:22:47;;;;;;;8.07;5.13;;;4.80;99.90;;;;;;5023992;28;20212;-48
2022/12/24 07:25:14;;;;;;;11.47;5.53;;;4.90;99.90;;;;;;5034658;28;20194;-46
2022/12/24 07:27:41;;;;;;;8.87;4.60;;;4.90;99.90;;;;;;5023512;28;20307;-49
2022/12/24 07:30:09;;;;;;;7.67;5.17;;;4.90;99.90;;;;;;5015588;28;20939;-51
2022/12/24 07:32:37;;;;;;;11.00;5.23;;;4.90;99.90;;;;;;5035026;28;20210;-46
2022/12/24 07:35:05;;;;;;;10.57;5.07;;;4.80;99.90;;;;;;5030813;28;20223;-49
2022/12/24 07:37:32;;;;;;;7.67;4.93;;;4.80;99.90;;;;;;5032061;28;20567;-48
2022/12/24 07:39:58;;;;;;;6.10;4.17;;;4.90;99.90;;;;;;5024278;28;20191;-49
2022/12/24 07:42:26;;;;;;;8.50;5.27;;;4.90;99.90;;;;;;5031298;28;20580;-48
2022/12/24 07:44:53;;;;;;;12.63;5.33;;;4.90;99.90;;;;;;5015191;28;20235;-46
2022/12/24 07:47:19;;;;;;;7.67;4.20;;;4.90;99.90;;;;;;5033623;28;20215;-48
2022/12/24 07:49:47;;;;;;;9.07;4.83;;;4.90;99.90;;;;;;5036930;28;20257;-49
2022/12/24 07:52:14;;;;;;;7.50;4.27;;;4.90;99.90;;;;;;5033702;28;20192;-47
2022/12/24 07:54:40;;;;;;;10.97;4.63;;;4.80;99.90;;;;;;5026392;28;20729;-46
2022/12/24 07:57:07;;;;;;;9.83;4.90;;;4.90;99.90;;;;;;5029581;28;20199;-46
2022/12/24 07:59:34;;;;;;;7.43;4.40;;;4.90;99.90;;;;;;5013822;28;20257;-47
2022/12/24 08:02:01;;;;;;;5.87;4.00;;;4.90;99.90;;;;;;5025828;28;20250;-48
2022/12/24 08:04:31;;;;;;;7.87;4.20;;;4.90;99.90;;;;;;5027369;28;20220;-47
2022/12/24 08:06:59;;;;;;;5.93;4.10;;;4.90;99.90;;;;;;5028495;28;20212;-46
2022/12/24 08:09:26;;;;;;;10.33;4.33;;;4.90;99.90;;;;;;5037602;28;20229;-49
2022/12/24 08:11:53;;;;;;;8.90;4.47;;;4.90;99.90;;;;;;5032308;28;20262;-48
2022/12/24 08:14:20;;;;;;;6.73;4.43;;;4.90;99.90;;;;;;5026320;28;20216;-46
2022/12/24 08:16:47;;;;;;;7.00;4.13;;;4.80;99.90;;;;;;5021158;28;20214;-53
2022/12/24 08:19:14;;;;;;;7.40;4.47;;;4.80;99.90;;;;;;5027055;28;20192;-49
2022/12/24 08:21:41;;;;;;;7.27;4.27;;;4.90;99.90;;;;;;5039217;28;20200;-48
2022/12/24 08:24:09;;;;;;;6.90;4.23;;;4.90;99.90;;;;;;5038509;28;20210;-48
2022/12/24 08:26:36;;;;;;;4.67;3.80;;;4.90;99.90;;;;;;5028459;28;20204;-52
2022/12/24 08:29:04;;;;;;;7.20;4.23;;;4.90;99.90;;;;;;5028823;28;20196;-49
2022/12/24 08:31:35;;;;;;;5.53;4.13;;;4.90;99.90;;;;;;5017892;28;20212;-48
2022/12/24 08:34:01;;;;;;;8.03;4.00;;;4.90;99.90;;;;;;5028294;28;20243;-51
2022/12/24 08:36:28;;;;;;;7.00;3.67;;;4.90;99.90;;;;;;5033323;28;20207;-46
2022/12/24 08:38:55;;;;;;;4.50;3.77;;;4.90;99.90;;;;;;5030591;28;20219;-49
2022/12/24 08:41:23;;;;;;;6.13;3.77;;;4.90;99.90;;;;;;5040718;28;20253;-52
2022/12/24 08:43:50;;;;;;;6.97;3.77;;;4.90;99.90;;;;;;5030507;28;20356;-50
2022/12/24 08:46:17;;;;;;;6.07;4.10;;;4.90;99.90;;;;;;5029765;28;20202;-49
2022/12/24 08:48:44;;;;;;;5.33;3.97;;;4.90;99.90;;;;;;5018095;28;20553;-51
2022/12/24 08:51:11;;;;;;;4.17;3.53;;;4.90;99.90;;;;;;5029253;28;20298;-47
2022/12/24 08:53:39;;;;;;;8.37;4.20;;;4.90;99.90;;;;;;5028301;28;20227;-49
2022/12/24 08:56:08;;;;;;;4.63;4.00;;;5.00;99.90;;;;;;5026931;28;20863;-47
2022/12/24 08:58:37;;;;;;;4.87;4.07;;;5.00;99.90;;;;;;5038018;28;20200;-47
2022/12/24 09:01:11;;;;;;;4.07;3.70;;;5.00;99.90;;;;;;5029948;28;20324;-48
2022/12/24 09:03:38;;;;;;;6.50;3.90;;;5.00;99.90;;;;;;5017352;28;20274;-49
2022/12/24 09:06:05;;;;;;;4.47;3.00;;;4.90;99.90;;;;;;5032492;28;20194;-48
2022/12/24 09:08:33;;;;;;;6.80;4.13;;;4.90;99.90;;;;;;5036402;28;20249;-51
2022/12/24 09:11:03;;;;;;;6.00;3.60;;;5.00;99.90;;;;;;5027469;28;20214;-46
2022/12/24 09:13:30;;;;;;;6.17;3.93;;;5.00;99.90;;;;;;5031787;28;20577;-46
2022/12/24 09:15:58;;;;;;;5.80;3.67;;;5.00;99.90;;;;;;5024584;28;20214;-46
2022/12/24 09:18:26;;;;;;;5.93;3.77;;;5.00;99.90;;;;;;5032956;28;20192;-49
2022/12/24 09:20:58;;;;;;;4.93;3.57;;;5.00;99.90;;;;;;5029805;28;20208;-50
2022/12/24 09:23:25;;;;;;;4.43;3.97;;;5.10;99.90;;;;;;5029932;28;20230;-48
2022/12/24 09:25:52;;;;;;;5.97;4.00;;;5.10;99.90;;;;;;5032974;28;20195;-50
2022/12/24 09:28:18;;;;;;;7.00;3.77;;;5.10;99.90;;;;;;5024748;28;20212;-51
2022/12/24 09:30:45;;;;;;;7.07;4.30;;;5.10;99.90;;;;;;5035742;28;20213;-46
2022/12/24 09:33:14;;;;;;;4.50;3.83;;;5.10;99.90;;;;;;5022208;28;20231;-50
2022/12/24 09:35:40;;;;;;;6.73;4.53;;;5.10;99.90;;;;;;5022962;28;20215;-49
2022/12/24 09:38:07;;;;;;;5.73;4.10;;;5.10;99.90;;;;;;5030114;28;20206;-49
2022/12/24 09:40:38;;;;;;;5.00;3.70;;;5.10;99.90;;;;;;5022826;28;20254;-47
2022/12/24 09:43:11;;;;;;;8.10;4.53;;;5.10;99.90;;;;;;5040816;28;20207;-47
2022/12/24 09:45:41;;;;;;;6.13;4.17;;;5.10;99.90;;;;;;5020425;28;20211;-50
2022/12/24 09:48:17;;;;;;;6.40;4.77;;;5.10;99.90;;;;;;5028101;28;20290;-47
2022/12/24 09:50:49;;;;;;;6.83;3.83;;;5.10;99.90;;;;;;5016229;28;20218;-47
2022/12/24 09:53:23;;;;;;;5.03;3.97;;;5.10;99.90;;;;;;5030193;28;20750;-50
2022/12/24 09:55:52;;;;;;;7.60;4.30;;;5.10;99.90;;;;;;5024030;28;20207;-47
2022/12/24 09:58:25;;;;;;;6.47;4.00;;;5.20;99.90;;;;;;5031421;28;20275;-51
2022/12/24 10:00:53;;;;;;;4.90;3.80;;;5.20;99.90;;;;;;5023126;28;20207;-47
2022/12/24 10:03:21;;;;;;;4.63;3.53;;;5.20;99.90;;;;;;5036646;28;20223;-48
2022/12/24 10:06:01;;;;;;;6.37;4.13;;;5.20;99.90;;;;;;5011989;28;20208;-46
2022/12/24 10:08:34;;;;;;;5.47;4.57;;;5.20;99.90;;;;;;5017115;28;20216;-47
2022/12/24 10:11:10;;;;;;;5.07;4.00;;;5.30;99.90;;;;;;5030447;28;20226;-46
2022/12/24 10:13:50;;;;;;;5.27;4.30;;;5.30;99.90;;;;;;5025994;28;20219;-46
2022/12/24 10:16:24;;;;;;;5.93;3.93;;;5.30;99.90;;;;;;5023129;28;20199;-49
2022/12/24 10:19:02;;;;;;;5.67;4.20;;;5.30;99.90;;;;;;5027701;28;20196;-48
2022/12/24 10:21:41;;;;;;;5.63;4.70;;;5.30;99.90;;;;;;5005394;28;20218;-48
2022/12/24 10:24:15;;;;;;;7.80;4.40;;;5.30;99.90;;;;;;5030938;28;20229;-50
2022/12/24 10:26:45;;;;;;;6.20;4.40;;;5.30;99.90;;;;;;5035176;28;20223;-49
2022/12/24 10:29:18;;;;;;;9.07;4.67;;;5.40;99.90;;;;;;5039010;28;20282;-45
2022/12/24 10:31:53;;;;;;;6.70;4.63;;;5.40;99.90;;;;;;5039972;28;20195;-46
2022/12/24 10:34:28;;;;;;;7.87;6.43;;;5.40;99.90;;;;;;5015272;28;20231;-46
2022/12/24 10:36:54;;;;;;;5.93;4.70;;;5.40;99.90;;;;;;5028753;28;20281;-46
2022/12/24 10:39:23;;;;;;;5.63;4.73;;;5.40;99.90;;;;;;5014870;28;20261;-46
2022/12/24 10:41:51;;;;;;;6.63;4.70;;;5.40;99.90;;;;;;5039987;28;20199;-47
2022/12/24 10:44:22;;;;;;;8.83;4.67;;;5.50;99.90;;;;;;5043365;28;20226;-48
2022/12/24 10:46:50;;;;;;;6.37;5.37;;;5.50;99.90;;;;;;5025866;28;20216;-48
2022/12/24 10:49:27;;;;;;;7.67;4.90;;;5.50;99.90;;;;;;5052016;28;20264;-46
2022/12/24 10:51:57;;;;;;;6.63;5.03;;;5.50;99.90;;;;;;5027198;28;20273;-52
2022/12/24 10:54:27;;;;;;;6.87;4.70;;;5.50;99.90;;;;;;5015582;28;20341;-46
2022/12/24 10:56:57;;;;;;;6.23;4.63;;;5.50;99.90;;;;;;5037001;28;20202;-46
2022/12/24 10:59:27;;;;;;;6.73;5.00;;;5.50;99.90;;;;;;5030965;28;20195;-48
2022/12/24 11:01:55;;;;;;;6.27;5.33;;;5.50;99.90;;;;;;5028094;28;20203;-49
2022/12/24 11:04:25;;;;;;;8.50;5.37;;;5.50;99.90;;;;;;5031639;28;20216;-49
2022/12/24 11:06:57;;;;;;;6.40;5.70;;;5.50;99.90;;;;;;5023945;28;20199;-48
2022/12/24 11:09:27;;;;;;;5.97;4.60;;;5.50;99.90;;;;;;5011946;28;20218;-50
2022/12/24 11:11:56;;;;;;;6.13;5.03;;;5.50;99.90;;;;;;5032840;28;20199;-49
2022/12/24 11:14:23;;;;;;;7.73;4.70;;;5.60;99.90;;;;;;5030967;28;20997;-52
2022/12/24 11:16:52;;;;;;;6.43;4.60;;;5.60;99.90;;;;;;5032450;28;20261;-47
2022/12/24 11:19:27;;;;;;;5.60;4.97;;;5.60;99.90;;;;;;5025995;28;20229;-48
2022/12/24 11:22:00;;;;;;;6.83;5.33;;;5.70;99.90;;;;;;5025149;28;20209;-50
2022/12/24 11:24:30;;;;;;;6.23;4.80;;;5.70;99.90;;;;;;5016818;28;20227;-48
2022/12/24 11:27:22;;;;;;;4.83;4.27;;;5.70;99.90;;;;;;5020461;28;20245;-49
2022/12/24 11:29:49;;;;;;;6.03;4.17;;;5.70;99.90;;;;;;5043568;28;20797;-47
2022/12/24 11:32:18;;;;;;;7.73;5.00;;;5.70;99.90;;;;;;5035322;28;20210;-47
2022/12/24 11:34:49;;;;;;;5.40;4.73;;;5.70;99.90;;;;;;5028720;28;20774;-48
2022/12/24 11:37:20;;;;;;;7.73;5.77;;;5.80;99.90;;;;;;5034636;28;20208;-48
2022/12/24 11:39:50;;;;;;;8.27;6.40;;;5.80;99.90;;;;;;5002230;28;20685;-48
2022/12/24 11:42:28;;;;;;;9.00;6.27;;;5.80;99.90;;;;;;5020586;28;20548;-46
2022/12/24 11:44:58;;;;;;;8.97;5.97;;;5.80;99.90;;;;;;5037908;28;20218;-49
2022/12/24 11:47:36;;;;;;;6.70;5.57;;;5.90;99.90;;;;;;5047924;28;20219;-47
2022/12/24 11:50:23;;;;;;;7.13;5.80;;;5.90;99.90;;;;;;5028544;28;20212;-47
2022/12/24 11:52:56;;;;;;;8.17;5.90;;;5.90;99.90;;;;;;5015743;28;20199;-51
2022/12/24 11:55:34;;;;;;;7.97;5.73;;;5.90;99.90;;;;;;5032291;28;20204;-49
2022/12/24 11:58:12;;;;;;;9.57;6.33;;;5.90;99.90;;;;;;5025551;28;20277;-47
2022/12/24 12:00:40;;;;;;;7.20;6.50;;;5.90;99.90;;;;;;5035768;28;20209;-52
2022/12/24 12:03:30;;;;;;;7.80;6.10;;;5.90;99.90;;;;;;5035742;28;20195;-50
2022/12/24 12:06:07;;;;;;;8.10;6.60;;;6.00;99.90;;;;;;5025546;28;20289;-51
2022/12/24 12:08:36;;;;;;;9.77;6.77;;;6.00;99.90;;;;;;5027993;28;20219;-51
2022/12/24 12:11:10;;;;;;;11.57;7.27;;;6.00;99.90;;;;;;5020807;28;20916;-47
2022/12/24 12:13:40;;;;;;;9.03;6.73;;;6.00;99.90;;;;;;5034772;28;20222;-50
2022/12/24 12:16:18;;;;;;;9.17;7.20;;;6.00;99.90;;;;;;5037765;28;20231;-50
2022/12/24 12:18:50;;;;;;;8.13;6.93;;;6.00;99.90;;;;;;5032788;28;20213;-54
2022/12/24 12:21:24;;;;;;;8.23;6.53;;;6.10;99.90;;;;;;5025119;28;20195;-47
2022/12/24 12:23:54;;;;;;;10.10;7.40;;;6.00;99.90;;;;;;5036371;28;20812;-50
2022/12/24 12:26:24;;;;;;;13.37;7.67;;;6.00;99.90;;;;;;5012925;28;20282;-48
2022/12/24 12:28:55;;;;;;;12.10;7.30;;;6.10;99.90;;;;;;5013230;28;20230;-51
2022/12/24 12:31:26;;;;;;;10.77;7.23;;;6.10;99.90;;;;;;5036270;28;20207;-50
2022/12/24 12:33:57;;;;;;;9.77;7.80;;;6.20;99.90;;;;;;5045480;28;20227;-49
2022/12/24 12:36:32;;;;;;;9.90;7.70;;;6.20;99.90;;;;;;5030573;28;20211;-47
2022/12/24 12:39:03;;;;;;;9.37;7.83;;;6.30;99.90;;;;;;5044849;28;20257;-50
2022/12/24 12:41:43;;;;;;;9.33;7.93;;;6.30;99.90;;;;;;5031956;28;20191;-47
2022/12/24 12:44:32;;;;;;;10.67;8.43;;;6.30;99.90;;;;;;5008696;28;20761;-52
2022/12/24 12:47:15;;;;;;;13.70;8.73;;;6.30;99.90;;;;;;5035017;28;20218;-51
2022/12/24 12:49:55;;;;;;;10.93;7.90;;;6.40;99.90;;;;;;5034244;28;20199;-49
2022/12/24 12:52:35;;;;;;;9.80;8.10;;;6.40;99.90;;;;;;5036095;28;20960;-46
2022/12/24 12:55:18;;;;;;;12.83;9.40;;;6.50;99.90;;;;;;5042456;28;20222;-50
2022/12/24 12:57:46;;;;;;;11.40;8.67;;;6.40;99.90;;;;;;5022130;28;20204;-50
2022/12/24 13:00:17;;;;;;;12.47;8.83;;;6.50;99.90;;;;;;5029527;28;20637;-52
2022/12/24 13:03:11;;;;;;;11.73;8.53;;;6.50;99.90;;;;;;5030264;28;20866;-50
2022/12/24 13:06:05;;;;;;;11.93;8.53;;;6.50;99.90;;;;;;5030405;28;20689;-47
2022/12/24 13:08:58;;;;;;;16.13;9.97;;;6.50;99.90;;;;;;5034302;28;21145;-49
2022/12/24 13:11:39;;;;;;;11.10;8.77;;;6.50;99.90;;;;;;5029331;28;20206;-48
2022/12/24 13:14:31;;;;;;;13.63;10.40;;;6.60;99.90;;;;;;5031627;28;20214;-49